Time;durP1;ratioP1;P1;durP2;ratioP2;P2;SDS_P1;SDS_P2;PMS_P1;PMS_P2;Temp;Humidity;BMP_temperature;BMP_pressure;BME280_temperature;BME280_humidity;BME280_pressure;Samples;Min_cycle;Max_cycle;Signal;HPM_P1;HPM_P2
2022/09/10 00:01:18;;;;;;;2.20;2.10;;;17.20;99.90;;;;;;5030088;28;20574;-86
2022/09/10 00:03:44;;;;;;;2.13;2.03;;;17.10;99.90;;;;;;5030651;28;20261;-86
2022/09/10 00:06:10;;;;;;;2.30;2.20;;;17.10;99.90;;;;;;5030243;28;20177;-89
2022/09/10 00:08:38;;;;;;;2.50;2.30;;;17.10;99.90;;;;;;5030326;28;20195;-87
2022/09/10 00:11:06;;;;;;;2.53;2.33;;;17.10;99.90;;;;;;5030423;28;20177;-86
2022/09/10 00:13:33;;;;;;;2.40;2.30;;;17.10;99.90;;;;;;5030282;28;20216;-86
2022/09/10 00:16:02;;;;;;;2.30;2.20;;;17.00;99.90;;;;;;5030359;28;20309;-86
2022/09/10 00:18:28;;;;;;;2.43;2.27;;;17.00;99.90;;;;;;5028859;28;20187;-87
2022/09/10 00:20:56;;;;;;;2.27;2.17;;;17.10;99.90;;;;;;5030303;28;20752;-87
2022/09/10 00:23:24;;;;;;;2.63;2.53;;;17.10;99.90;;;;;;5030415;28;20169;-87
2022/09/10 00:25:52;;;;;;;2.33;2.23;;;17.10;99.90;;;;;;5030229;28;20173;-87
2022/09/10 00:28:23;;;;;;;3.10;2.33;;;17.00;99.90;;;;;;5030576;28;20173;-87
2022/09/10 00:30:50;;;;;;;2.63;2.53;;;17.00;99.90;;;;;;5030478;28;20180;-86
2022/09/10 00:33:18;;;;;;;2.53;2.43;;;17.10;99.90;;;;;;5028747;28;20699;-86
2022/09/10 00:35:44;;;;;;;2.40;2.20;;;17.10;99.90;;;;;;5029895;28;20285;-85
2022/09/10 00:38:12;;;;;;;2.97;2.60;;;17.10;99.90;;;;;;5030075;28;20568;-87
2022/09/10 00:40:39;;;;;;;3.70;2.47;;;17.10;99.90;;;;;;5030046;28;20173;-86
2022/09/10 00:43:45;;;;;;;2.40;2.20;;;17.10;99.90;;;;;;5030046;28;20176;-86
2022/09/10 00:46:12;;;;;;;2.90;2.10;;;16.90;99.90;;;;;;5026760;28;20647;-86
2022/09/10 00:48:37;;;;;;;2.67;2.47;;;17.00;99.90;;;;;;5029981;28;20200;-87
2022/09/10 00:51:04;;;;;;;4.00;2.30;;;16.90;99.90;;;;;;5029942;28;20710;-88
2022/09/10 00:53:31;;;;;;;2.40;2.30;;;16.90;99.90;;;;;;5029861;28;20711;-91
2022/09/10 00:55:59;;;;;;;2.63;2.43;;;16.90;99.90;;;;;;5029938;28;20605;-89
2022/09/10 00:58:27;;;;;;;2.57;2.33;;;16.80;99.90;;;;;;5029825;28;20176;-87
2022/09/10 01:00:59;;;;;;;2.60;2.40;;;16.80;99.90;;;;;;5029955;28;20169;-85
2022/09/10 01:03:28;;;;;;;2.40;2.20;;;16.80;99.90;;;;;;5030882;28;20267;-86
2022/09/10 01:05:54;;;;;;;2.47;2.13;;;16.70;99.90;;;;;;5031015;28;20613;-88
2022/09/10 01:08:20;;;;;;;2.83;2.10;;;16.70;99.90;;;;;;5031499;28;20168;-89
2022/09/10 01:11:06;;;;;;;2.47;2.37;;;16.70;99.90;;;;;;5031074;28;20164;-90
2022/09/10 01:13:50;;;;;;;2.50;2.40;;;16.70;99.90;;;;;;5045771;28;20196;-89
2022/09/10 01:16:35;;;;;;;3.37;2.60;;;16.70;99.90;;;;;;5056308;28;20154;-87
2022/09/10 01:19:04;;;;;;;2.20;2.03;;;16.60;99.90;;;;;;5047185;28;20176;-92
2022/09/10 01:21:48;;;;;;;2.20;2.10;;;16.60;99.90;;;;;;5034421;28;20180;-90
2022/09/10 01:24:38;;;;;;;2.40;2.30;;;16.50;99.90;;;;;;5034572;28;20250;-86
2022/09/10 01:27:16;;;;;;;2.43;2.23;;;16.60;99.90;;;;;;5033992;28;20169;-88
2022/09/10 01:29:48;;;;;;;2.67;2.50;;;16.60;99.90;;;;;;5034392;28;20252;-89
2022/09/10 01:32:25;;;;;;;2.40;2.30;;;16.70;99.90;;;;;;5033712;28;20180;-88
2022/09/10 01:35:06;;;;;;;2.23;2.13;;;16.70;99.90;;;;;;5038919;28;20172;-86
2022/09/10 01:37:36;;;;;;;2.33;2.23;;;16.70;99.90;;;;;;5036010;28;20279;-89
2022/09/10 01:40:03;;;;;;;2.50;2.40;;;16.60;99.90;;;;;;5033984;28;20168;-89
2022/09/10 01:42:29;;;;;;;2.37;2.30;;;16.60;99.90;;;;;;5033499;28;20169;-88
2022/09/10 01:44:56;;;;;;;2.87;2.40;;;16.60;99.90;;;;;;5033473;28;20648;-90
2022/09/10 01:47:54;;;;;;;2.23;2.13;;;16.60;99.90;;;;;;5032198;28;20176;-91
2022/09/10 01:50:42;;;;;;;2.50;2.40;;;16.60;99.90;;;;;;5031901;28;20273;-90
2022/09/10 01:53:32;;;;;;;2.47;2.37;;;16.70;99.90;;;;;;5033168;28;20218;-88
2022/09/10 01:56:03;;;;;;;3.30;2.60;;;16.70;99.90;;;;;;5033281;28;20568;-87
2022/09/10 01:58:40;;;;;;;3.10;2.90;;;16.70;99.90;;;;;;5033239;28;20647;-89
2022/09/10 02:01:33;;;;;;;2.80;2.70;;;16.70;99.90;;;;;;5032056;28;20168;-91
2022/09/10 02:04:03;;;;;;;4.07;3.67;;;16.70;99.90;;;;;;5033258;28;20242;-88
2022/09/10 02:06:34;;;;;;;4.00;3.70;;;16.80;99.90;;;;;;5033012;28;20248;-91
2022/09/10 02:09:01;;;;;;;4.63;3.90;;;16.80;99.90;;;;;;5031818;28;20172;-91
2022/09/10 02:11:27;;;;;;;4.17;3.97;;;16.80;99.90;;;;;;5033114;28;20184;-90
2022/09/10 02:13:54;;;;;;;4.50;4.20;;;16.80;99.90;;;;;;5033213;28;20243;-91
2022/09/10 02:16:37;;;;;;;6.13;4.87;;;16.80;99.90;;;;;;5032871;28;20199;-90
2022/09/10 02:19:03;;;;;;;3.93;3.73;;;16.70;99.90;;;;;;5032937;28;20165;-90
2022/09/10 02:21:30;;;;;;;4.10;3.90;;;16.70;99.90;;;;;;5032757;28;20171;-90
2022/09/10 02:24:04;;;;;;;5.33;4.93;;;16.80;99.90;;;;;;5032752;28;20905;-90
2022/09/10 02:26:37;;;;;;;4.83;4.37;;;16.70;99.90;;;;;;5032552;28;20172;-86
2022/09/10 02:29:03;;;;;;;5.63;4.80;;;16.60;99.90;;;;;;5032049;28;20260;-86
2022/09/10 02:31:29;;;;;;;5.30;4.90;;;16.60;99.90;;;;;;5032373;28;20191;-86
2022/09/10 02:33:55;;;;;;;5.03;4.20;;;16.70;99.90;;;;;;5032146;28;20688;-86
2022/09/10 02:36:24;;;;;;;5.13;4.50;;;16.70;99.90;;;;;;5032059;28;20231;-86
2022/09/10 02:38:51;;;;;;;4.10;3.80;;;16.70;99.90;;;;;;5032182;28;20165;-88
2022/09/10 02:41:17;;;;;;;3.10;2.97;;;16.60;99.90;;;;;;5031297;28;20180;-86
2022/09/10 02:43:44;;;;;;;3.30;3.17;;;16.50;99.90;;;;;;5034150;28;20173;-89
2022/09/10 02:46:11;;;;;;;3.50;3.20;;;16.50;99.90;;;;;;5033138;28;20173;-85
2022/09/10 02:48:37;;;;;;;3.57;2.83;;;16.40;99.90;;;;;;5032500;28;20180;-87
2022/09/10 02:51:03;;;;;;;3.13;2.93;;;16.40;99.90;;;;;;5040271;28;20176;-86
2022/09/10 02:53:30;;;;;;;3.40;3.20;;;16.30;99.90;;;;;;5058836;28;20203;-86
2022/09/10 02:55:56;;;;;;;3.07;2.83;;;16.40;99.90;;;;;;5046891;28;20181;-87
2022/09/10 02:58:22;;;;;;;3.17;2.87;;;16.40;99.90;;;;;;5032226;28;20263;-90
2022/09/10 03:00:48;;;;;;;3.23;2.83;;;16.40;99.90;;;;;;5031724;28;20311;-86
2022/09/10 03:03:15;;;;;;;3.03;2.90;;;16.40;99.90;;;;;;5030546;28;20699;-88
2022/09/10 03:05:40;;;;;;;3.27;2.97;;;16.30;99.90;;;;;;5031775;28;20172;-86
2022/09/10 03:08:08;;;;;;;3.03;2.83;;;16.30;99.90;;;;;;5031676;28;20180;-86
2022/09/10 03:10:34;;;;;;;3.07;2.70;;;16.30;99.90;;;;;;5031992;28;20596;-86
2022/09/10 03:13:00;;;;;;;2.93;2.63;;;16.40;99.90;;;;;;5031712;28;20266;-85
2022/09/10 03:15:27;;;;;;;2.80;2.60;;;16.40;99.90;;;;;;5036824;28;20656;-88
2022/09/10 03:17:53;;;;;;;2.90;2.80;;;16.30;99.90;;;;;;5038828;28;20175;-90
2022/09/10 03:20:21;;;;;;;3.13;2.83;;;16.40;99.90;;;;;;5040733;28;20164;-87
2022/09/10 03:22:50;;;;;;;3.07;2.80;;;16.30;99.90;;;;;;5037460;28;20174;-88
2022/09/10 03:25:17;;;;;;;4.30;2.77;;;16.30;99.90;;;;;;5032354;28;20183;-86
2022/09/10 03:27:43;;;;;;;3.53;3.00;;;16.30;99.90;;;;;;5031854;28;20188;-90
2022/09/10 03:30:09;;;;;;;3.10;2.90;;;16.30;99.90;;;;;;5030262;28;20648;-89
2022/09/10 03:32:36;;;;;;;3.17;2.67;;;16.40;99.90;;;;;;5031766;28;20273;-87
2022/09/10 03:35:02;;;;;;;3.10;2.90;;;16.30;99.90;;;;;;5031143;28;20697;-90
2022/09/10 03:37:28;;;;;;;3.10;2.90;;;16.20;99.90;;;;;;5029862;28;20230;-88
2022/09/10 03:39:57;;;;;;;3.00;2.90;;;16.30;99.90;;;;;;5029651;28;20521;-85
2022/09/10 03:42:24;;;;;;;4.73;2.80;;;16.30;99.90;;;;;;5030000;28;20181;-88
2022/09/10 03:44:49;;;;;;;6.20;3.20;;;16.30;99.90;;;;;;5031212;28;20199;-85
2022/09/10 03:47:15;;;;;;;3.00;2.70;;;16.40;99.90;;;;;;5031224;28;20700;-86
2022/09/10 03:49:41;;;;;;;2.63;2.47;;;16.40;99.90;;;;;;5031280;28;20182;-88
2022/09/10 03:52:11;;;;;;;4.50;2.73;;;16.40;99.90;;;;;;5031298;28;20249;-85
2022/09/10 03:54:37;;;;;;;2.67;2.50;;;16.50;99.90;;;;;;5031076;28;20184;-86
2022/09/10 03:57:04;;;;;;;3.17;2.87;;;16.30;99.90;;;;;;5031054;28;20172;-87
2022/09/10 03:59:29;;;;;;;3.00;2.60;;;16.30;99.90;;;;;;5031439;28;20268;-84
2022/09/10 04:01:56;;;;;;;2.90;2.80;;;16.20;99.90;;;;;;5030325;28;20625;-83
2022/09/10 04:04:21;;;;;;;2.50;2.40;;;16.20;99.90;;;;;;5030964;28;20198;-84
2022/09/10 04:06:47;;;;;;;4.07;2.83;;;16.20;99.90;;;;;;5031286;28;20900;-83
2022/09/10 04:09:13;;;;;;;2.90;2.80;;;16.10;99.90;;;;;;5031708;28;20176;-83
2022/09/10 04:11:39;;;;;;;3.23;3.03;;;16.10;99.90;;;;;;5030466;28;20176;-83
2022/09/10 04:14:05;;;;;;;3.07;2.70;;;16.10;99.90;;;;;;5030635;28;20276;-88
2022/09/10 04:16:31;;;;;;;3.20;2.90;;;16.00;99.90;;;;;;5030560;28;20260;-86
2022/09/10 04:18:56;;;;;;;2.80;2.70;;;16.00;99.90;;;;;;5030880;28;20636;-87
2022/09/10 04:21:23;;;;;;;3.30;3.00;;;15.90;99.90;;;;;;5030603;28;20172;-87
2022/09/10 04:23:53;;;;;;;3.20;3.00;;;15.80;99.90;;;;;;5031441;28;20267;-85
2022/09/10 04:26:19;;;;;;;3.57;3.27;;;15.70;99.90;;;;;;5031446;28;20250;-85
2022/09/10 04:28:45;;;;;;;2.97;2.77;;;15.70;99.90;;;;;;5038200;28;20172;-84
2022/09/10 04:31:11;;;;;;;2.97;2.80;;;15.80;99.90;;;;;;5053988;28;20165;-84
2022/09/10 04:33:37;;;;;;;4.10;2.70;;;15.70;99.90;;;;;;5047122;28;20571;-87
2022/09/10 04:36:03;;;;;;;3.77;3.17;;;15.70;99.90;;;;;;5032410;28;20326;-87
2022/09/10 04:38:31;;;;;;;3.80;3.20;;;15.70;99.90;;;;;;5029059;28;20184;-86
2022/09/10 04:41:00;;;;;;;2.87;2.77;;;15.80;99.90;;;;;;5030431;28;20172;-85
2022/09/10 04:43:27;;;;;;;5.90;3.10;;;15.80;99.90;;;;;;5030309;28;20183;-85
2022/09/10 04:45:54;;;;;;;3.13;2.93;;;15.80;99.90;;;;;;5030421;28;20179;-89
2022/09/10 04:48:22;;;;;;;3.27;3.07;;;15.70;99.90;;;;;;5030202;28;20486;-85
2022/09/10 04:50:51;;;;;;;3.47;3.10;;;15.70;99.90;;;;;;5030068;28;20190;-89
2022/09/10 04:53:18;;;;;;;3.40;3.17;;;15.70;99.90;;;;;;5028840;28;20219;-87
2022/09/10 04:55:46;;;;;;;4.80;2.97;;;15.70;99.90;;;;;;5032405;28;20177;-84
2022/09/10 04:58:12;;;;;;;4.33;3.30;;;15.60;99.90;;;;;;5043787;28;20184;-87
2022/09/10 05:00:38;;;;;;;5.40;2.97;;;15.60;99.90;;;;;;5032726;28;20206;-87
2022/09/10 05:03:05;;;;;;;5.23;3.10;;;15.70;99.90;;;;;;5031268;28;20176;-89
2022/09/10 05:05:32;;;;;;;3.23;3.10;;;15.60;99.90;;;;;;5033576;28;20175;-85
2022/09/10 05:08:04;;;;;;;3.13;3.03;;;15.70;99.90;;;;;;5044909;28;20179;-84
2022/09/10 05:10:29;;;;;;;3.47;2.73;;;15.70;99.90;;;;;;5031261;28;20274;-88
2022/09/10 05:12:55;;;;;;;4.53;2.80;;;15.60;99.90;;;;;;5030377;28;20291;-87
2022/09/10 05:15:21;;;;;;;3.13;2.83;;;15.60;99.90;;;;;;5030600;28;20647;-88
2022/09/10 05:17:48;;;;;;;5.40;3.07;;;15.70;99.90;;;;;;5029621;28;20325;-86
2022/09/10 05:20:14;;;;;;;2.90;2.70;;;15.70;99.90;;;;;;5029701;28;20173;-89
2022/09/10 05:22:41;;;;;;;5.13;3.00;;;15.70;99.90;;;;;;5029864;28;20173;-87
2022/09/10 05:25:08;;;;;;;3.20;2.70;;;15.70;99.90;;;;;;5028991;28;20181;-88
2022/09/10 05:27:33;;;;;;;3.53;3.23;;;15.60;99.90;;;;;;5030032;28;20176;-88
2022/09/10 05:30:00;;;;;;;5.43;3.00;;;15.70;99.90;;;;;;5029937;28;20665;-87
2022/09/10 05:32:31;;;;;;;3.13;2.87;;;15.80;99.90;;;;;;5028817;28;20190;-88
2022/09/10 05:34:57;;;;;;;4.23;2.70;;;15.80;99.90;;;;;;5030387;28;20235;-88
2022/09/10 05:37:23;;;;;;;2.80;2.60;;;15.90;99.90;;;;;;5030011;28;20232;-90
2022/09/10 05:39:49;;;;;;;2.67;2.47;;;16.00;99.90;;;;;;5029739;28;20272;-86
2022/09/10 05:42:15;;;;;;;2.57;2.47;;;16.10;99.90;;;;;;5029719;28;20165;-90
2022/09/10 05:44:40;;;;;;;4.63;3.03;;;16.10;99.90;;;;;;5032303;28;20230;-87
2022/09/10 05:47:07;;;;;;;3.20;2.70;;;16.10;99.90;;;;;;5030459;28;20188;-88
2022/09/10 05:49:33;;;;;;;3.73;3.17;;;16.10;99.90;;;;;;5029608;28;20223;-84
2022/09/10 05:51:59;;;;;;;2.60;2.50;;;16.20;99.90;;;;;;5029485;28;20188;-84
2022/09/10 05:54:24;;;;;;;4.00;3.00;;;16.20;99.90;;;;;;5028332;28;20735;-84
2022/09/10 05:56:51;;;;;;;3.67;3.17;;;16.20;99.90;;;;;;5030194;28;20694;-83
2022/09/10 05:59:17;;;;;;;3.10;2.77;;;16.20;99.90;;;;;;5030557;28;20180;-84
2022/09/10 06:01:42;;;;;;;3.00;2.80;;;16.20;99.90;;;;;;5016801;28;20695;-84
2022/09/10 06:04:10;;;;;;;4.33;3.30;;;16.10;99.90;;;;;;5032398;28;20185;-84
2022/09/10 06:06:36;;;;;;;3.30;2.90;;;16.10;99.90;;;;;;5035208;28;20186;-84
2022/09/10 06:09:02;;;;;;;2.97;2.77;;;16.20;99.90;;;;;;5047157;28;20226;-83
2022/09/10 06:11:28;;;;;;;3.90;2.73;;;16.20;99.90;;;;;;5044186;28;20643;-87
2022/09/10 06:13:53;;;;;;;3.33;2.30;;;16.40;99.90;;;;;;5034049;28;20215;-88
2022/09/10 06:16:19;;;;;;;2.57;2.37;;;16.40;99.90;;;;;;5034095;28;20173;-84
2022/09/10 06:18:45;;;;;;;3.00;2.70;;;16.40;99.90;;;;;;5039180;28;20179;-84
2022/09/10 06:21:14;;;;;;;3.33;2.70;;;16.50;99.90;;;;;;5033541;28;20318;-85
2022/09/10 06:23:42;;;;;;;3.00;2.80;;;16.60;99.90;;;;;;5035307;28;20179;-87
2022/09/10 06:26:17;;;;;;;2.70;2.50;;;16.60;99.90;;;;;;5031952;28;20183;-85
2022/09/10 06:28:43;;;;;;;4.47;2.30;;;16.60;99.90;;;;;;5031507;28;20187;-84
2022/09/10 06:31:13;;;;;;;2.80;2.53;;;16.60;99.90;;;;;;5032913;28;20195;-84
2022/09/10 06:33:39;;;;;;;2.43;2.23;;;16.70;99.90;;;;;;5033196;28;20282;-84
2022/09/10 06:36:05;;;;;;;4.07;2.17;;;16.70;99.90;;;;;;5032916;28;20229;-86
2022/09/10 06:38:32;;;;;;;2.37;2.20;;;16.80;99.90;;;;;;5035404;28;20173;-85
2022/09/10 06:41:00;;;;;;;2.30;2.20;;;16.80;99.90;;;;;;5033211;28;20847;-86
2022/09/10 06:43:30;;;;;;;2.40;2.30;;;16.90;99.90;;;;;;5031504;28;20180;-85
2022/09/10 06:45:56;;;;;;;2.20;2.10;;;16.90;99.90;;;;;;5033222;28;20539;-85
2022/09/10 06:48:26;;;;;;;4.50;2.30;;;17.10;99.90;;;;;;5033080;28;20172;-85
2022/09/10 06:50:57;;;;;;;2.47;2.27;;;17.10;99.90;;;;;;5032985;28;20584;-84
2022/09/10 06:53:26;;;;;;;3.27;2.43;;;17.20;99.90;;;;;;5038790;28;20192;-86
2022/09/10 06:55:52;;;;;;;2.40;2.20;;;17.20;99.90;;;;;;5042383;28;20167;-87
2022/09/10 06:58:19;;;;;;;2.63;2.40;;;17.30;99.90;;;;;;5033355;28;20208;-87
2022/09/10 07:00:46;;;;;;;4.73;2.60;;;17.30;99.90;;;;;;5033367;28;20251;-87
2022/09/10 07:03:13;;;;;;;4.07;2.60;;;17.40;99.90;;;;;;5031037;28;20468;-88
2022/09/10 07:05:39;;;;;;;3.60;2.40;;;17.30;99.90;;;;;;5032092;28;20176;-87
2022/09/10 07:08:05;;;;;;;2.90;2.70;;;17.40;99.90;;;;;;5032090;28;20259;-88
2022/09/10 07:10:31;;;;;;;3.40;2.87;;;17.50;99.90;;;;;;5032581;28;20176;-86
2022/09/10 07:12:59;;;;;;;2.83;2.20;;;17.60;99.90;;;;;;5032179;28;20211;-87
2022/09/10 07:15:27;;;;;;;2.60;2.40;;;17.60;99.90;;;;;;5031565;28;20656;-85
2022/09/10 07:17:53;;;;;;;3.10;2.90;;;17.70;99.90;;;;;;5031790;28;20173;-85
2022/09/10 07:20:22;;;;;;;2.93;2.30;;;17.80;99.90;;;;;;5030458;28;20605;-85
2022/09/10 07:22:52;;;;;;;1.83;1.73;;;17.80;99.90;;;;;;5032835;28;20697;-86
2022/09/10 07:25:18;;;;;;;2.00;1.90;;;17.90;99.90;;;;;;5032340;28;20172;-87
2022/09/10 07:27:45;;;;;;;2.20;2.00;;;18.00;99.90;;;;;;5031846;28;20184;-88
2022/09/10 07:30:11;;;;;;;2.27;2.10;;;18.00;99.90;;;;;;5031361;28;20203;-87
2022/09/10 07:32:38;;;;;;;2.40;2.20;;;18.00;99.90;;;;;;5033322;28;20181;-87
2022/09/10 07:35:06;;;;;;;3.40;2.30;;;18.10;99.90;;;;;;5036591;28;20242;-88
2022/09/10 07:37:33;;;;;;;2.30;2.10;;;18.20;99.90;;;;;;5034252;28;20600;-85
2022/09/10 07:39:58;;;;;;;2.10;2.00;;;18.20;99.90;;;;;;5034779;28;20754;-88
2022/09/10 07:42:25;;;;;;;6.13;3.67;;;18.30;99.90;;;;;;5033803;28;20180;-89
2022/09/10 07:44:51;;;;;;;2.40;2.30;;;18.40;99.90;;;;;;5040141;28;20267;-89
2022/09/10 07:47:17;;;;;;;2.63;2.00;;;18.50;99.90;;;;;;5054409;28;20168;-86
2022/09/10 07:49:43;;;;;;;2.20;2.10;;;18.60;99.90;;;;;;5049358;28;20164;-88
2022/09/10 07:52:10;;;;;;;2.10;2.00;;;18.90;99.90;;;;;;5038276;28;20219;-85
2022/09/10 07:54:36;;;;;;;2.00;1.90;;;18.90;99.90;;;;;;5033264;28;20325;-87
2022/09/10 07:57:03;;;;;;;2.30;1.90;;;19.10;99.90;;;;;;5031075;28;20532;-85
2022/09/10 07:59:30;;;;;;;1.80;1.70;;;19.30;99.90;;;;;;5031473;28;20232;-85
2022/09/10 08:01:58;;;;;;;1.67;1.53;;;19.40;99.90;;;;;;5030692;28;20214;-88
2022/09/10 08:04:25;;;;;;;1.67;1.57;;;19.50;99.90;;;;;;5031026;28;20640;-88
2022/09/10 08:06:52;;;;;;;1.53;1.43;;;19.60;99.90;;;;;;5031038;28;20176;-87
2022/09/10 08:09:20;;;;;;;1.97;1.60;;;19.70;99.90;;;;;;5031380;28;20165;-88
2022/09/10 08:11:47;;;;;;;3.73;1.50;;;19.90;99.90;;;;;;5030965;28;20172;-88
2022/09/10 08:14:12;;;;;;;1.67;1.57;;;20.00;99.90;;;;;;5029743;28;20257;-87
2022/09/10 08:16:38;;;;;;;1.80;1.40;;;20.00;99.90;;;;;;5031239;28;20185;-90
2022/09/10 08:19:04;;;;;;;3.07;2.00;;;20.00;99.90;;;;;;5032218;28;20206;-88
2022/09/10 08:21:31;;;;;;;5.77;1.53;;;19.90;99.90;;;;;;5035219;28;20196;-87
2022/09/10 08:23:57;;;;;;;1.60;1.50;;;19.90;99.90;;;;;;5035540;28;20195;-90
2022/09/10 08:26:24;;;;;;;2.00;1.90;;;19.80;99.90;;;;;;5031907;28;20213;-88
2022/09/10 08:28:51;;;;;;;1.47;1.40;;;19.70;99.90;;;;;;5030770;28;20277;-89
2022/09/10 08:31:17;;;;;;;1.80;1.70;;;19.50;99.90;;;;;;5029641;28;20317;-89
2022/09/10 08:33:51;;;;;;;2.80;1.43;;;19.30;99.90;;;;;;5031027;28;20294;-89
2022/09/10 08:36:18;;;;;;;1.20;1.20;;;19.10;99.90;;;;;;5031220;28;20227;-89
2022/09/10 08:38:45;;;;;;;1.20;1.20;;;19.10;99.90;;;;;;5031021;28;20255;-88
2022/09/10 08:41:22;;;;;;;2.20;1.33;;;19.00;99.90;;;;;;5031053;28;20191;-87
2022/09/10 08:44:04;;;;;;;1.90;1.80;;;19.00;99.90;;;;;;5040078;28;20184;-85
2022/09/10 08:46:55;;;;;;;2.07;1.97;;;19.00;99.90;;;;;;5032586;28;20168;-85
2022/09/10 08:49:43;;;;;;;1.50;1.40;;;19.10;99.90;;;;;;5010802;28;20918;-86
2022/09/10 08:52:29;;;;;;;1.97;1.83;;;19.30;99.90;;;;;;5029256;28;20224;-88
2022/09/10 08:55:17;;;;;;;1.57;1.47;;;19.40;99.90;;;;;;5028984;28;20279;-85
2022/09/10 08:57:44;;;;;;;3.37;1.30;;;19.50;99.90;;;;;;5030871;28;20180;-88
2022/09/10 09:00:18;;;;;;;2.03;1.60;;;19.50;99.90;;;;;;5030287;28;20168;-87
2022/09/10 09:03:02;;;;;;;1.40;1.30;;;19.60;99.90;;;;;;5030707;28;20255;-88
2022/09/10 09:05:35;;;;;;;2.00;1.90;;;19.60;99.90;;;;;;5028981;28;20172;-88
2022/09/10 09:08:03;;;;;;;1.43;1.33;;;19.50;99.90;;;;;;5030262;28;20180;-84
2022/09/10 09:11:02;;;;;;;3.53;1.90;;;19.50;99.90;;;;;;5030007;28;20172;-85
2022/09/10 09:13:39;;;;;;;2.37;2.27;;;19.50;99.90;;;;;;5030315;28;20667;-85
2022/09/10 09:16:44;;;;;;;1.70;1.60;;;19.50;99.90;;;;;;5028666;28;20562;-89
2022/09/10 09:19:17;;;;;;;1.60;1.40;;;19.60;99.90;;;;;;5019160;28;20750;-86
2022/09/10 09:21:55;;;;;;;1.53;1.43;;;19.70;99.90;;;;;;5031693;28;20536;-85
2022/09/10 09:24:21;;;;;;;2.53;1.33;;;19.80;99.90;;;;;;5030059;28;20172;-86
2022/09/10 09:26:48;;;;;;;1.97;1.27;;;19.80;99.90;;;;;;5034189;28;20178;-88
2022/09/10 09:29:26;;;;;;;1.90;1.30;;;19.90;99.90;;;;;;5050903;28;20164;-87
2022/09/10 09:31:57;;;;;;;2.83;1.30;;;19.90;99.90;;;;;;5042472;28;20659;-85
2022/09/10 09:34:38;;;;;;;5.40;1.43;;;20.00;99.90;;;;;;5030719;28;20672;-85
2022/09/10 09:37:20;;;;;;;2.47;1.30;;;20.00;99.90;;;;;;5029812;28;20687;-85
2022/09/10 09:40:13;;;;;;;1.73;1.10;;;20.20;99.90;;;;;;5035349;28;20214;-85
2022/09/10 09:42:58;;;;;;;2.50;1.47;;;20.20;99.90;;;;;;5034229;28;20165;-84
2022/09/10 09:45:33;;;;;;;2.50;1.10;;;20.30;99.90;;;;;;5033774;28;20187;-88
2022/09/10 09:47:59;;;;;;;1.40;1.20;;;20.40;99.90;;;;;;5033759;28;20164;-87
2022/09/10 09:50:33;;;;;;;1.00;0.90;;;20.50;99.90;;;;;;5033331;28;20640;-87
2022/09/10 09:52:59;;;;;;;0.93;0.90;;;20.50;99.90;;;;;;5033436;28;20766;-87
2022/09/10 09:55:48;;;;;;;1.27;1.17;;;20.50;99.90;;;;;;5033767;28;20197;-88
2022/09/10 09:58:35;;;;;;;2.93;1.10;;;20.40;99.90;;;;;;5033992;28;20156;-87
2022/09/10 10:01:03;;;;;;;1.27;0.90;;;20.40;99.90;;;;;;5032498;28;20926;-87
2022/09/10 10:03:30;;;;;;;1.10;1.10;;;20.50;99.90;;;;;;5033811;28;20176;-88
2022/09/10 10:06:07;;;;;;;1.53;1.00;;;20.60;99.90;;;;;;5041486;28;20211;-87
2022/09/10 10:08:44;;;;;;;2.20;0.80;;;20.70;99.90;;;;;;5045999;28;20487;-88
2022/09/10 10:11:19;;;;;;;2.73;0.93;;;20.80;99.90;;;;;;5035261;28;20200;-86
2022/09/10 10:13:46;;;;;;;0.83;0.83;;;20.80;99.90;;;;;;5033858;28;20258;-90
2022/09/10 10:16:22;;;;;;;3.40;1.40;;;20.90;99.90;;;;;;5033519;28;20227;-85
2022/09/10 10:18:49;;;;;;;1.30;0.70;;;20.90;99.90;;;;;;5033684;28;20164;-90
2022/09/10 10:21:32;;;;;;;1.40;0.90;;;21.00;99.90;;;;;;5034172;28;20165;-86
2022/09/10 10:23:59;;;;;;;0.80;0.80;;;21.00;99.90;;;;;;5034020;28;20179;-87
2022/09/10 10:26:33;;;;;;;0.90;0.90;;;21.10;99.90;;;;;;5033998;28;20177;-89
2022/09/10 10:29:06;;;;;;;1.20;0.83;;;21.00;99.90;;;;;;5036921;28;20263;-85
2022/09/10 10:31:47;;;;;;;0.80;0.80;;;21.00;99.90;;;;;;5036719;28;20204;-86
2022/09/10 10:34:31;;;;;;;1.17;0.60;;;21.10;99.90;;;;;;5034974;28;20208;-85
2022/09/10 10:37:07;;;;;;;1.10;1.10;;;21.20;99.90;;;;;;5033801;28;20227;-88
2022/09/10 10:40:05;;;;;;;2.80;0.77;;;21.30;99.90;;;;;;5038721;28;20272;-88
2022/09/10 10:42:53;;;;;;;1.23;0.77;;;21.30;99.90;;;;;;5037561;28;20175;-86
2022/09/10 10:45:31;;;;;;;0.70;0.70;;;21.40;99.90;;;;;;5036141;28;20157;-85
2022/09/10 10:48:23;;;;;;;1.90;0.90;;;21.60;99.90;;;;;;5035583;28;20649;-87
2022/09/10 10:50:54;;;;;;;2.50;0.93;;;21.70;99.90;;;;;;5023567;28;20188;-88
2022/09/10 10:53:30;;;;;;;0.90;0.70;;;21.80;99.90;;;;;;5033157;28;20287;-86
2022/09/10 10:56:10;;;;;;;0.87;0.50;;;21.80;99.60;;;;;;5032565;28;20145;-86
2022/09/10 10:58:52;;;;;;;0.87;0.73;;;21.80;99.10;;;;;;5032666;28;20621;-86
2022/09/10 11:01:25;;;;;;;0.63;0.63;;;21.90;99.10;;;;;;5033720;28;20165;-87
2022/09/10 11:04:12;;;;;;;0.70;0.70;;;21.80;98.20;;;;;;5033590;28;20188;-86
2022/09/10 11:06:48;;;;;;;1.00;0.90;;;22.00;99.50;;;;;;5034538;28;20192;-86
2022/09/10 11:09:27;;;;;;;0.60;0.60;;;22.10;99.90;;;;;;5053187;28;20168;-90
2022/09/10 11:12:26;;;;;;;2.45;2.35;;;22.10;99.50;;;;;;5044420;28;20537;-87
2022/09/10 11:15:05;;;;;;;1.57;0.70;;;22.30;99.00;;;;;;5037037;28;20208;-88
2022/09/10 11:17:46;;;;;;;0.95;0.95;;;22.40;97.80;;;;;;5034734;28;20694;-88
2022/09/10 11:20:15;;;;;;;0.70;0.70;;;22.60;98.00;;;;;;5032288;28;20861;-86
2022/09/10 11:22:52;;;;;;;0.63;0.63;;;22.90;97.70;;;;;;5031558;28;20663;-86
2022/09/10 11:25:27;;;;;;;0.80;0.80;;;23.30;97.10;;;;;;5031618;28;20169;-90
2022/09/10 11:28:11;;;;;;;1.13;1.13;;;23.60;96.20;;;;;;5031726;28;20161;-86
2022/09/10 11:30:40;;;;;;;1.33;1.33;;;23.60;95.70;;;;;;5032089;28;20260;-86
2022/09/10 11:33:23;;;;;;;3.83;0.80;;;23.80;95.80;;;;;;5029990;28;20226;-85
2022/09/10 11:36:00;;;;;;;0.70;0.70;;;23.90;96.30;;;;;;5031631;28;20535;-90
2022/09/10 11:39:05;;;;;;;0.50;0.50;;;23.90;96.30;;;;;;5031589;28;20176;-85
2022/09/10 11:41:34;;;;;;;0.65;0.60;;;23.90;95.40;;;;;;5031269;28;20175;-85
2022/09/10 11:44:20;;;;;;;2.83;0.60;;;23.90;94.70;;;;;;5031436;28;20527;-87
2022/09/10 11:47:11;;;;;;;0.52;0.52;;;23.90;95.30;;;;;;5030137;28;20176;-88
2022/09/10 11:49:52;;;;;;;0.70;0.70;;;23.90;96.60;;;;;;5041289;28;20187;-85
2022/09/10 11:52:20;;;;;;;2.45;0.90;;;23.80;95.90;;;;;;5035033;28;20309;-85
2022/09/10 11:54:46;;;;;;;1.88;0.68;;;23.80;95.50;;;;;;5032751;28;20265;-88
2022/09/10 11:57:27;;;;;;;1.48;0.80;;;23.60;95.50;;;;;;5032397;28;20259;-85
2022/09/10 12:00:11;;;;;;;1.38;0.63;;;23.50;96.30;;;;;;5031893;28;20253;-87
2022/09/10 12:03:14;;;;;;;0.40;0.40;;;23.50;96.50;;;;;;5032001;28;20179;-92
2022/09/10 12:06:00;;;;;;;0.60;0.60;;;23.50;96.70;;;;;;5035462;28;20180;-90
2022/09/10 12:09:04;;;;;;;1.23;0.63;;;23.50;96.10;;;;;;5032961;28;20156;-90
2022/09/10 12:11:46;;;;;;;1.65;0.90;;;23.40;94.80;;;;;;5032877;28;20183;-90
2022/09/10 12:14:18;;;;;;;0.75;0.75;;;23.40;95.80;;;;;;5033423;28;20202;-91
2022/09/10 12:17:16;;;;;;;0.45;0.45;;;23.50;96.40;;;;;;5034388;28;20180;-88
2022/09/10 12:19:50;;;;;;;0.70;0.70;;;23.60;96.60;;;;;;5037966;28;20184;-89
2022/09/10 12:22:16;;;;;;;0.70;0.70;;;23.60;97.30;;;;;;5035903;28;20168;-87
2022/09/10 12:24:51;;;;;;;0.65;0.65;;;23.60;97.60;;;;;;5031599;28;20266;-86
2022/09/10 12:27:19;;;;;;;0.85;0.85;;;23.60;97.40;;;;;;5029849;28;20168;-89
2022/09/10 12:29:45;;;;;;;0.70;0.68;;;23.60;97.60;;;;;;5032184;28;20223;-87
2022/09/10 12:32:19;;;;;;;0.68;0.68;;;23.70;96.20;;;;;;5032055;28;20172;-91
2022/09/10 12:34:48;;;;;;;1.33;0.63;;;23.70;95.60;;;;;;5031155;28;20199;-85
2022/09/10 12:37:27;;;;;;;0.60;0.60;;;23.80;95.90;;;;;;5031170;28;20228;-88
2022/09/10 12:40:27;;;;;;;3.30;0.52;;;23.90;95.50;;;;;;5032381;28;20169;-87
2022/09/10 12:43:37;;;;;;;1.95;0.77;;;24.00;96.20;;;;;;5031892;28;20691;-86
2022/09/10 12:46:17;;;;;;;0.80;0.80;;;24.20;96.20;;;;;;5035341;28;20183;-84
2022/09/10 12:49:11;;;;;;;2.05;0.70;;;24.40;95.80;;;;;;5050259;28;20199;-86
2022/09/10 12:51:59;;;;;;;1.42;1.30;;;24.40;95.30;;;;;;5046855;28;20196;-87
2022/09/10 12:55:07;;;;;;;2.13;1.05;;;24.40;96.20;;;;;;5036795;28;20738;-87
2022/09/10 12:57:52;;;;;;;0.73;0.73;;;24.50;95.50;;;;;;5031693;28;20612;-89
2022/09/10 13:00:26;;;;;;;0.60;0.60;;;24.50;94.80;;;;;;5031729;28;20219;-90
2022/09/10 13:03:10;;;;;;;0.70;0.70;;;24.40;95.30;;;;;;5031474;28;20186;-86
2022/09/10 13:05:47;;;;;;;0.75;0.75;;;24.30;94.50;;;;;;5031634;28;20157;-88
2022/09/10 13:08:24;;;;;;;0.68;0.68;;;24.00;95.20;;;;;;5030700;28;20184;-85
2022/09/10 13:10:58;;;;;;;0.70;0.70;;;23.70;95.70;;;;;;5031631;28;20157;-88
2022/09/10 13:13:33;;;;;;;0.68;0.60;;;23.50;96.40;;;;;;5034416;28;20250;-88